Terminal Aerodrome Forecast
Issued by NWS

Home | Current Version | Previous Version | Text Only | Print | Product List | Glossary On
Versions: 1 2 3 4 5 6 7 8 9 10 11 12 13 14 15
000
FTUS42 KMLB 162300
TAFSFB
TAF
KSFB 162334Z 1700/1724 03011G18KT P6SM FEW025 BKN035
     FM170400 03010KT P6SM OVC025
     FM170800 02010KT P6SM OVC015
     FM171500 06014G24KT P6SM SCT015 OVC030=

USA.gov is the U.S. government's official web portal to all federal, state and local government web resources and services.